createdAt,value
2023-02-17T00:01:24.450Z,36.83
2023-02-17T00:03:52.954Z,35.50
2023-02-17T00:06:22.878Z,37.47
2023-02-17T00:08:50.510Z,36.50
2023-02-17T00:11:18.757Z,37.13
2023-02-17T00:13:46.130Z,37.20
2023-02-17T00:16:23.510Z,36.80
2023-02-17T00:19:01.511Z,37.87
2023-02-17T00:21:31.839Z,39.20
2023-02-17T00:23:59.697Z,40.87
2023-02-17T00:26:26.644Z,37.50
2023-02-17T00:28:54.196Z,39.90
2023-02-17T00:31:23.246Z,37.23
2023-02-17T00:33:55.622Z,38.20
2023-02-17T00:36:23.113Z,35.60
2023-02-17T00:38:50.948Z,40.50
2023-02-17T00:41:19.188Z,37.27
2023-02-17T00:43:47.138Z,39.87
2023-02-17T00:46:16.659Z,37.70
2023-02-17T00:48:45.500Z,37.27
2023-02-17T00:51:12.758Z,37.10
2023-02-17T00:53:39.711Z,38.53
2023-02-17T00:56:07.865Z,37.37
2023-02-17T00:58:36.156Z,36.67
2023-02-17T01:01:03.491Z,36.40
2023-02-17T01:03:31.181Z,39.27
2023-02-17T01:05:58.155Z,37.77
2023-02-17T01:08:25.571Z,38.43
2023-02-17T01:10:53.283Z,37.57
2023-02-17T01:13:20.311Z,39.13
2023-02-17T01:15:52.243Z,39.20
2023-02-17T01:18:23.873Z,40.57
2023-02-17T01:20:51.461Z,39.13
2023-02-17T01:23:18.714Z,39.03
2023-02-17T01:25:47.999Z,41.33
2023-02-17T01:28:20.484Z,40.97
2023-02-17T01:30:48.635Z,39.87
2023-02-17T01:33:15.536Z,41.10
2023-02-17T01:35:42.505Z,40.40
2023-02-17T01:38:09.539Z,39.77
2023-02-17T01:40:36.524Z,39.63
2023-02-17T01:43:03.979Z,39.90
2023-02-17T01:45:38.123Z,38.37
2023-02-17T01:48:42.875Z,40.20
2023-02-17T01:51:22.670Z,40.27
2023-02-17T01:53:57.266Z,39.97
2023-02-17T01:56:25.487Z,45.23
2023-02-17T01:59:01.304Z,41.43
2023-02-17T02:01:29.112Z,41.90
2023-02-17T02:03:56.631Z,40.70
2023-02-17T02:06:27.427Z,43.27
2023-02-17T02:09:03.382Z,41.13
2023-02-17T02:11:30.523Z,42.40
2023-02-17T02:13:58.593Z,43.43
2023-02-17T02:16:54.878Z,39.60
2023-02-17T02:19:58.412Z,41.43
2023-02-17T02:23:08.951Z,42.37
2023-02-17T02:26:09.690Z,40.07
2023-02-17T02:29:14.642Z,42.20
2023-02-17T02:32:20.817Z,44.43
2023-02-17T02:35:28.404Z,41.13
2023-02-17T02:38:29.530Z,38.60
2023-02-17T02:41:29.699Z,39.93
2023-02-17T02:43:56.596Z,39.13
2023-02-17T02:46:24.022Z,41.73
2023-02-17T02:48:51.663Z,39.73
2023-02-17T02:52:06.158Z,39.97
2023-02-17T02:55:28.760Z,39.50
2023-02-17T02:58:11.458Z,36.40
2023-02-17T03:00:50.001Z,38.90
2023-02-17T03:03:47.571Z,35.70
2023-02-17T03:06:45.705Z,35.97
2023-02-17T03:09:21.159Z,38.60
2023-02-17T03:11:49.545Z,35.63
2023-02-17T03:14:20.911Z,37.10
2023-02-17T03:16:48.590Z,33.43
2023-02-17T03:19:20.678Z,35.13
2023-02-17T03:21:58.731Z,34.93
2023-02-17T03:24:25.662Z,31.93
2023-02-17T03:26:52.654Z,32.40
2023-02-17T03:29:19.595Z,34.07
2023-02-17T03:31:46.552Z,34.50
2023-02-17T03:34:13.458Z,35.10
2023-02-17T03:36:40.356Z,35.70
2023-02-17T03:39:07.300Z,36.67
2023-02-17T03:41:34.436Z,35.57
2023-02-17T03:44:01.765Z,32.40
2023-02-17T03:46:28.739Z,32.90
2023-02-17T03:48:55.646Z,35.23
2023-02-17T03:51:25.330Z,32.57
2023-02-17T03:53:52.732Z,31.90
2023-02-17T03:56:19.773Z,30.10
2023-02-17T03:58:46.650Z,33.60
2023-02-17T04:01:14.129Z,31.60
2023-02-17T04:03:42.055Z,31.47
2023-02-17T04:06:10.465Z,33.37
2023-02-17T04:08:37.749Z,33.80
2023-02-17T04:11:06.640Z,29.70
2023-02-17T04:13:33.868Z,31.83
2023-02-17T04:16:01.612Z,35.33
2023-02-17T04:18:28.831Z,31.60
2023-02-17T04:20:55.747Z,30.77
2023-02-17T04:23:22.845Z,31.90
2023-02-17T04:25:49.937Z,32.60
2023-02-17T04:28:17.543Z,32.90
2023-02-17T04:30:47.005Z,31.37
2023-02-17T04:33:14.442Z,30.13
2023-02-17T04:35:41.578Z,31.77
2023-02-17T04:38:10.340Z,30.07
2023-02-17T04:40:37.946Z,30.37
2023-02-17T04:43:05.212Z,30.60
2023-02-17T04:45:32.444Z,33.07
2023-02-17T04:47:59.348Z,33.07
2023-02-17T04:50:26.342Z,31.70
2023-02-17T04:52:53.237Z,32.57
2023-02-17T04:55:20.232Z,31.17
2023-02-17T04:57:47.181Z,30.63
2023-02-17T05:00:14.430Z,29.37
2023-02-17T05:02:41.297Z,32.97
2023-02-17T05:05:08.624Z,29.33
2023-02-17T05:07:35.616Z,33.63
2023-02-17T05:10:02.585Z,31.33
2023-02-17T05:12:29.478Z,30.20
2023-02-17T05:14:56.349Z,33.90
2023-02-17T05:17:23.249Z,29.47
2023-02-17T05:19:50.120Z,30.50
2023-02-17T05:22:17.031Z,31.07
2023-02-17T05:24:44.206Z,34.53
2023-02-17T05:27:11.127Z,33.80
2023-02-17T05:29:38.015Z,32.80
2023-02-17T05:32:04.954Z,32.27
2023-02-17T05:34:32.375Z,30.67
2023-02-17T05:36:59.288Z,32.50
2023-02-17T05:39:26.166Z,32.37
2023-02-17T05:41:53.147Z,33.30
2023-02-17T05:44:20.501Z,33.10
2023-02-17T05:46:47.442Z,33.13
2023-02-17T05:49:14.362Z,33.07
2023-02-17T05:51:41.262Z,34.20
2023-02-17T05:54:08.182Z,33.03
2023-02-17T05:56:35.132Z,34.60
2023-02-17T05:59:02.080Z,31.93
2023-02-17T06:01:29.039Z,34.63
2023-02-17T06:03:55.920Z,35.47
2023-02-17T06:06:22.844Z,35.37
2023-02-17T06:08:49.728Z,35.90
2023-02-17T06:11:16.610Z,33.80
2023-02-17T06:13:43.509Z,34.10
2023-02-17T06:16:10.549Z,34.27
2023-02-17T06:18:37.470Z,35.77
2023-02-17T06:21:04.598Z,35.97
2023-02-17T06:23:31.479Z,35.33
2023-02-17T06:25:58.374Z,33.00
2023-02-17T06:28:25.343Z,32.20
2023-02-17T06:30:52.257Z,34.30
2023-02-17T06:33:19.155Z,34.90
2023-02-17T06:35:51.136Z,29.30
2023-02-17T06:38:18.650Z,32.17
2023-02-17T06:40:45.656Z,32.13
2023-02-17T06:43:12.611Z,31.40
2023-02-17T06:45:39.561Z,32.77
2023-02-17T06:48:06.526Z,34.70
2023-02-17T06:50:33.454Z,31.83
2023-02-17T06:53:00.328Z,32.50
2023-02-17T06:55:27.265Z,32.17
2023-02-17T06:57:54.161Z,32.80
2023-02-17T07:00:21.694Z,32.07
2023-02-17T07:02:48.774Z,32.20
2023-02-17T07:05:15.783Z,30.73
2023-02-17T07:07:42.681Z,33.10
2023-02-17T07:10:10.367Z,32.00
2023-02-17T07:12:37.340Z,32.97
2023-02-17T07:15:04.744Z,32.30
2023-02-17T07:17:31.774Z,33.07
2023-02-17T07:19:58.655Z,30.80
2023-02-17T07:22:26.743Z,29.20
2023-02-17T07:24:53.654Z,32.07
2023-02-17T07:27:20.609Z,29.90
2023-02-17T07:29:47.502Z,29.50
2023-02-17T07:32:14.427Z,31.40
2023-02-17T07:34:41.357Z,30.90
2023-02-17T07:37:09.081Z,29.03
2023-02-17T07:39:36.020Z,29.50
2023-02-17T07:42:05.059Z,29.00
2023-02-17T07:44:33.484Z,27.23
2023-02-17T07:47:00.371Z,24.80
2023-02-17T07:49:27.318Z,25.70
2023-02-17T07:51:54.224Z,25.63
2023-02-17T07:54:21.253Z,25.30
2023-02-17T07:56:48.152Z,26.00
2023-02-17T07:59:15.609Z,25.80
2023-02-17T08:01:42.817Z,24.83
2023-02-17T08:04:09.809Z,26.07
2023-02-17T08:06:39.773Z,27.17
2023-02-17T08:09:25.454Z,25.87
2023-02-17T08:12:11.010Z,26.53
2023-02-17T08:14:38.670Z,25.00
2023-02-17T08:17:06.486Z,25.70
2023-02-17T08:19:47.017Z,23.97
2023-02-17T08:22:15.206Z,22.90
2023-02-17T08:24:42.087Z,24.50
2023-02-17T08:27:09.024Z,22.80
2023-02-17T08:29:35.909Z,22.57
2023-02-17T08:32:03.527Z,23.03
2023-02-17T08:34:33.739Z,22.53
2023-02-17T08:37:05.694Z,20.30
2023-02-17T08:39:34.326Z,21.27
2023-02-17T08:42:02.144Z,20.80
2023-02-17T08:44:29.056Z,19.17
2023-02-17T08:46:56.003Z,20.30
2023-02-17T08:49:25.929Z,20.37
2023-02-17T08:51:52.906Z,17.60
2023-02-17T08:54:20.194Z,19.43
2023-02-17T08:56:47.132Z,17.30
2023-02-17T08:59:14.171Z,16.53
2023-02-17T09:01:42.432Z,16.33
2023-02-17T09:04:11.433Z,15.60
2023-02-17T09:06:48.706Z,18.50
2023-02-17T09:09:19.905Z,15.23
2023-02-17T09:11:46.819Z,15.53
2023-02-17T09:14:13.721Z,15.17
2023-02-17T09:16:41.710Z,14.53
2023-02-17T09:19:08.789Z,16.20
2023-02-17T09:21:35.740Z,14.87
2023-02-17T09:24:02.675Z,14.70
2023-02-17T09:26:29.730Z,14.40
2023-02-17T09:28:57.926Z,13.40
2023-02-17T09:31:26.853Z,14.90
2023-02-17T09:33:55.117Z,15.43
2023-02-17T09:36:29.867Z,13.40
2023-02-17T09:38:57.111Z,14.20
2023-02-17T09:41:38.407Z,13.10
2023-02-17T09:44:21.451Z,13.07
2023-02-17T09:47:05.591Z,12.60
2023-02-17T09:49:42.386Z,13.20
2023-02-17T09:52:25.836Z,13.40
2023-02-17T09:55:06.864Z,12.67
2023-02-17T09:58:02.982Z,12.23
2023-02-17T10:00:38.952Z,11.80
2023-02-17T10:03:26.794Z,12.97
2023-02-17T10:06:16.290Z,12.53
2023-02-17T10:08:54.129Z,10.60
2023-02-17T10:11:59.815Z,17.80
2023-02-17T10:14:50.027Z,11.93
2023-02-17T10:17:37.893Z,10.43
2023-02-17T10:20:09.459Z,11.00
2023-02-17T10:22:36.717Z,11.40
2023-02-17T10:25:16.225Z,11.43
2023-02-17T10:28:07.638Z,11.17
2023-02-17T10:31:24.677Z,10.60
2023-02-17T10:34:03.375Z,10.67
2023-02-17T10:36:59.626Z,12.27
2023-02-17T10:39:51.882Z,13.50
2023-02-17T10:42:31.500Z,12.60
2023-02-17T10:45:05.384Z,11.80
2023-02-17T10:47:35.578Z,12.33
2023-02-17T10:50:05.651Z,12.63
2023-02-17T10:52:41.031Z,12.23
2023-02-17T10:55:38.936Z,14.30
2023-02-17T10:58:22.603Z,12.63
2023-02-17T11:00:56.346Z,12.63
2023-02-17T11:03:27.578Z,12.97
2023-02-17T11:06:03.258Z,13.43
2023-02-17T11:09:03.946Z,12.43
2023-02-17T11:11:34.793Z,12.40
2023-02-17T11:14:24.933Z,13.47
2023-02-17T11:17:12.409Z,14.43
2023-02-17T11:19:39.493Z,12.30
2023-02-17T11:22:31.038Z,13.30
2023-02-17T11:25:01.214Z,13.00
2023-02-17T11:27:28.269Z,13.23
2023-02-17T11:30:15.690Z,13.20
2023-02-17T11:32:42.660Z,14.20
2023-02-17T11:35:31.847Z,17.10
2023-02-17T11:38:15.316Z,16.80
2023-02-17T11:40:54.062Z,15.43
2023-02-17T11:43:21.050Z,16.13
2023-02-17T11:46:07.296Z,17.50
2023-02-17T11:49:02.646Z,18.00
2023-02-17T11:52:03.755Z,18.47
2023-02-17T11:54:51.966Z,18.53
2023-02-17T11:57:45.559Z,18.50
2023-02-17T12:00:56.178Z,18.90
2023-02-17T12:04:12.161Z,18.40
2023-02-17T12:07:28.967Z,19.50
2023-02-17T12:10:22.932Z,16.67
2023-02-17T12:13:21.487Z,18.87
2023-02-17T12:16:21.621Z,17.30
2023-02-17T12:19:00.058Z,18.93
2023-02-17T12:22:03.210Z,17.00
2023-02-17T12:25:20.596Z,17.20
2023-02-17T12:28:23.124Z,18.47
2023-02-17T12:31:14.861Z,19.00
2023-02-17T12:34:01.613Z,20.33
2023-02-17T12:36:34.905Z,19.83
2023-02-17T12:39:19.183Z,19.07
2023-02-17T12:41:53.056Z,21.27
2023-02-17T12:44:30.393Z,20.10
2023-02-17T12:47:04.234Z,18.73
2023-02-17T12:49:53.393Z,20.07
2023-02-17T12:52:28.350Z,18.97
2023-02-17T12:55:03.520Z,18.67
2023-02-17T12:58:04.164Z,18.47
2023-02-17T13:00:41.025Z,18.67
2023-02-17T13:03:08.169Z,16.87
2023-02-17T13:05:43.834Z,16.33
2023-02-17T13:08:23.305Z,17.07
2023-02-17T13:11:06.431Z,16.40
2023-02-17T13:13:35.337Z,16.00
2023-02-17T13:16:13.577Z,16.00
2023-02-17T13:18:50.256Z,15.40
2023-02-17T13:21:24.817Z,16.10
2023-02-17T13:24:04.044Z,16.23
2023-02-17T13:26:36.788Z,15.50
2023-02-17T13:29:33.179Z,15.53
2023-02-17T13:32:07.707Z,13.87
2023-02-17T13:34:43.361Z,13.20
2023-02-17T13:37:26.523Z,12.37
2023-02-17T13:39:53.835Z,11.70
2023-02-17T13:42:40.834Z,11.93
2023-02-17T13:45:33.487Z,12.50
2023-02-17T13:48:21.668Z,11.30
2023-02-17T13:50:53.709Z,11.60
2023-02-17T13:53:27.533Z,11.37
2023-02-17T13:56:01.024Z,10.70
2023-02-17T13:58:37.527Z,11.17
2023-02-17T14:01:07.563Z,9.57
2023-02-17T14:03:42.111Z,8.23
2023-02-17T14:06:28.060Z,8.20
2023-02-17T14:08:55.162Z,8.63
2023-02-17T14:11:26.253Z,8.53
2023-02-17T14:13:56.135Z,8.27
2023-02-17T14:16:39.011Z,7.33
2023-02-17T14:19:12.265Z,7.10
2023-02-17T14:22:04.183Z,7.37
2023-02-17T14:24:36.173Z,6.97
2023-02-17T14:27:08.697Z,7.23
2023-02-17T14:29:48.585Z,6.60
2023-02-17T14:32:34.065Z,8.07
2023-02-17T14:35:14.296Z,7.00
2023-02-17T14:37:42.500Z,6.80
2023-02-17T14:40:23.362Z,6.80
2023-02-17T14:42:50.694Z,7.50
2023-02-17T14:45:18.907Z,7.37
2023-02-17T14:47:46.682Z,6.43
2023-02-17T14:50:14.830Z,6.30
2023-02-17T14:52:48.361Z,6.77
2023-02-17T14:55:39.053Z,5.93
2023-02-17T14:58:06.034Z,6.30
2023-02-17T15:00:32.877Z,7.13
2023-02-17T15:02:59.751Z,6.60
2023-02-17T15:05:26.685Z,6.33
2023-02-17T15:07:53.604Z,6.33
2023-02-17T15:10:29.244Z,5.53
2023-02-17T15:12:57.318Z,5.80
2023-02-17T15:15:24.308Z,5.40
2023-02-17T15:17:51.220Z,4.57
2023-02-17T15:20:18.272Z,4.93
2023-02-17T15:22:45.311Z,4.53
2023-02-17T15:25:19.181Z,4.53
2023-02-17T15:27:46.700Z,4.27
2023-02-17T15:30:20.176Z,4.53
2023-02-17T15:32:47.791Z,3.90
2023-02-17T15:35:24.390Z,4.00
2023-02-17T15:37:51.675Z,3.60
2023-02-17T15:40:22.954Z,3.73
2023-02-17T15:43:03.430Z,3.77
2023-02-17T15:45:30.857Z,3.20
2023-02-17T15:48:12.967Z,2.73
2023-02-17T15:50:40.013Z,3.10
2023-02-17T15:53:06.916Z,3.33
2023-02-17T15:55:34.161Z,3.07
2023-02-17T15:58:05.161Z,3.03
2023-02-17T16:00:35.184Z,2.83
2023-02-17T16:03:02.430Z,2.80
2023-02-17T16:05:30.518Z,2.90
2023-02-17T16:07:57.751Z,2.63
2023-02-17T16:10:27.365Z,2.53
2023-02-17T16:12:57.513Z,2.13
2023-02-17T16:15:26.879Z,2.87
2023-02-17T16:17:55.646Z,1.90
2023-02-17T16:20:27.812Z,2.77
2023-02-17T16:22:54.741Z,2.13
2023-02-17T16:25:22.778Z,1.87
2023-02-17T16:27:52.341Z,2.53
2023-02-17T16:30:34.990Z,2.43
2023-02-17T16:33:03.023Z,2.20
2023-02-17T16:35:32.124Z,2.17
2023-02-17T16:38:04.942Z,2.93
2023-02-17T16:40:35.240Z,2.77
2023-02-17T16:43:02.701Z,3.23
2023-02-17T16:45:32.672Z,3.53
2023-02-17T16:48:01.219Z,3.50
2023-02-17T16:50:34.237Z,2.90
2023-02-17T16:53:08.719Z,3.33
2023-02-17T16:55:36.798Z,3.83
2023-02-17T16:58:04.896Z,3.07
2023-02-17T17:00:33.075Z,4.43
2023-02-17T17:03:00.024Z,6.83
2023-02-17T17:05:29.157Z,4.87
2023-02-17T17:07:56.669Z,5.00
2023-02-17T17:10:27.325Z,3.83
2023-02-17T17:12:54.195Z,6.30
2023-02-17T17:15:21.415Z,4.60
2023-02-17T17:18:01.574Z,5.00
2023-02-17T17:20:35.516Z,4.70
2023-02-17T17:23:06.249Z,5.30
2023-02-17T17:25:38.623Z,6.10
2023-02-17T17:28:06.418Z,4.20
2023-02-17T17:30:35.690Z,3.63
2023-02-17T17:33:03.117Z,4.80
2023-02-17T17:35:31.129Z,4.27
2023-02-17T17:37:58.745Z,7.87
2023-02-17T17:40:30.202Z,3.50
2023-02-17T17:42:57.446Z,7.03
2023-02-17T17:45:25.114Z,5.53
2023-02-17T17:47:52.078Z,9.20
2023-02-17T17:50:23.239Z,5.10
2023-02-17T17:52:50.300Z,6.90
2023-02-17T17:55:17.233Z,11.77
2023-02-17T17:57:44.267Z,7.73
2023-02-17T18:00:15.293Z,7.77
2023-02-17T18:02:42.705Z,5.27
2023-02-17T18:05:09.647Z,5.20
2023-02-17T18:07:38.586Z,5.70
2023-02-17T18:10:10.204Z,4.20
2023-02-17T18:12:38.089Z,5.00
2023-02-17T18:15:06.653Z,4.43
2023-02-17T18:17:37.400Z,3.83
2023-02-17T18:20:06.171Z,5.37
2023-02-17T18:22:33.523Z,3.93
2023-02-17T18:25:00.428Z,5.10
2023-02-17T18:27:27.346Z,5.20
2023-02-17T18:29:58.458Z,5.23
2023-02-17T18:32:25.363Z,4.90
2023-02-17T18:34:52.267Z,4.40
2023-02-17T18:37:19.159Z,5.57
2023-02-17T18:39:46.059Z,4.13
2023-02-17T18:42:12.964Z,4.60
2023-02-17T18:44:39.871Z,5.00
2023-02-17T18:47:06.751Z,4.90
2023-02-17T18:49:33.706Z,5.60
2023-02-17T18:52:00.597Z,4.60
2023-02-17T18:54:27.492Z,5.67
2023-02-17T18:56:54.382Z,5.30
2023-02-17T18:59:21.338Z,4.70
2023-02-17T19:01:48.330Z,5.20
2023-02-17T19:04:15.446Z,4.83
2023-02-17T19:06:42.689Z,3.87
2023-02-17T19:09:09.608Z,4.53
2023-02-17T19:11:36.507Z,5.23
2023-02-17T19:14:03.808Z,5.50
2023-02-17T19:16:32.036Z,5.10
2023-02-17T19:18:59.664Z,5.20
2023-02-17T19:21:26.985Z,5.20
2023-02-17T19:23:54.056Z,5.00
2023-02-17T19:26:21.774Z,4.87
2023-02-17T19:28:49.044Z,4.57
2023-02-17T19:31:19.474Z,4.70
2023-02-17T19:33:46.747Z,5.47
2023-02-17T19:36:20.192Z,3.90
2023-02-17T19:38:49.121Z,4.57
2023-02-17T19:41:17.652Z,4.70
2023-02-17T19:43:45.288Z,4.20
2023-02-17T19:46:15.432Z,3.90
2023-02-17T19:48:42.378Z,5.63
2023-02-17T19:51:12.308Z,4.60
2023-02-17T19:53:39.936Z,5.17
2023-02-17T19:56:19.168Z,4.00
2023-02-17T19:58:46.749Z,5.30
2023-02-17T20:01:23.947Z,4.80
2023-02-17T20:03:51.481Z,4.87
2023-02-17T20:06:22.821Z,4.03
2023-02-17T20:08:59.378Z,4.03
2023-02-17T20:11:28.361Z,4.70
2023-02-17T20:13:58.071Z,5.20
2023-02-17T20:16:25.418Z,4.97
2023-02-17T20:18:52.434Z,4.10
2023-02-17T20:21:23.579Z,3.60
2023-02-17T20:23:51.488Z,4.87
2023-02-17T20:26:23.825Z,4.70
2023-02-17T20:28:52.149Z,3.90
2023-02-17T20:31:19.903Z,3.63
2023-02-17T20:33:47.463Z,5.17
2023-02-17T20:36:14.445Z,4.37
2023-02-17T20:38:41.814Z,5.10
2023-02-17T20:41:11.578Z,5.07
2023-02-17T20:43:38.534Z,5.43
2023-02-17T20:46:05.735Z,6.17
2023-02-17T20:48:33.448Z,3.70
2023-02-17T20:51:00.386Z,6.70
2023-02-17T20:53:27.704Z,5.53
2023-02-17T20:55:55.155Z,5.53
2023-02-17T20:58:22.156Z,4.63
2023-02-17T21:00:49.595Z,5.53
2023-02-17T21:03:16.570Z,6.10
2023-02-17T21:05:43.590Z,4.43
2023-02-17T21:08:10.496Z,4.93
2023-02-17T21:10:39.848Z,4.47
2023-02-17T21:13:06.782Z,5.20
2023-02-17T21:15:33.949Z,4.47
2023-02-17T21:18:00.814Z,4.83
2023-02-17T21:20:27.705Z,4.60
2023-02-17T21:22:54.581Z,4.60
2023-02-17T21:25:21.475Z,5.20
2023-02-17T21:27:48.351Z,3.70
2023-02-17T21:30:15.441Z,5.37
2023-02-17T21:32:42.542Z,4.90
2023-02-17T21:35:10.671Z,5.97
2023-02-17T21:37:38.914Z,5.33
2023-02-17T21:40:10.856Z,4.17
2023-02-17T21:42:57.173Z,5.13
2023-02-17T21:45:25.465Z,3.13
2023-02-17T21:47:52.722Z,5.37
2023-02-17T21:50:21.276Z,3.90
2023-02-17T21:52:48.313Z,3.67
2023-02-17T21:55:15.239Z,5.00
2023-02-17T21:57:42.107Z,3.73
2023-02-17T22:00:09.344Z,4.00
2023-02-17T22:02:44.158Z,4.03
2023-02-17T22:05:11.252Z,4.07
2023-02-17T22:07:38.115Z,2.83
2023-02-17T22:10:06.760Z,3.37
2023-02-17T22:12:37.350Z,4.10
2023-02-17T22:15:05.754Z,3.40
2023-02-17T22:17:34.785Z,3.83
2023-02-17T22:20:01.791Z,3.97
2023-02-17T22:22:28.660Z,3.93
2023-02-17T22:24:55.596Z,3.43
2023-02-17T22:27:22.486Z,4.70
2023-02-17T22:29:49.400Z,3.40
2023-02-17T22:32:16.313Z,3.77
2023-02-17T22:34:43.425Z,3.90
2023-02-17T22:37:10.305Z,3.43
2023-02-17T22:39:37.218Z,4.00
2023-02-17T22:42:04.167Z,4.70
2023-02-17T22:44:31.157Z,3.43
2023-02-17T22:46:58.102Z,3.07
2023-02-17T22:49:25.014Z,3.30
2023-02-17T22:51:52.057Z,3.90
2023-02-17T22:54:18.975Z,3.73
2023-02-17T22:56:45.890Z,4.20
2023-02-17T22:59:12.801Z,4.43
2023-02-17T23:01:39.755Z,3.47
2023-02-17T23:04:06.765Z,4.40
2023-02-17T23:06:37.103Z,3.80
2023-02-17T23:09:07.006Z,3.30
2023-02-17T23:11:54.843Z,3.70
2023-02-17T23:14:34.562Z,3.20
2023-02-17T23:17:05.693Z,3.97
2023-02-17T23:19:33.100Z,3.47
2023-02-17T23:22:05.477Z,3.60
2023-02-17T23:24:32.788Z,3.00
2023-02-17T23:27:01.210Z,3.40
2023-02-17T23:29:30.642Z,3.20
2023-02-17T23:31:58.113Z,4.20
2023-02-17T23:34:28.349Z,3.47
2023-02-17T23:36:55.299Z,3.50
2023-02-17T23:39:22.360Z,3.33
2023-02-17T23:41:49.270Z,3.33
2023-02-17T23:44:16.285Z,3.87
2023-02-17T23:46:44.872Z,3.17
2023-02-17T23:49:18.308Z,3.13
2023-02-17T23:51:47.079Z,3.80
2023-02-17T23:54:14.627Z,3.80
2023-02-17T23:56:41.512Z,3.13
2023-02-17T23:59:08.899Z,2.80
